createdAt,value
2018-12-09T00:04:09.348Z,40.10
2018-12-09T00:08:21.254Z,50.30
2018-12-09T00:12:33.343Z,55.07
2018-12-09T00:16:45.448Z,53.50
2018-12-09T00:20:57.567Z,71.10
2018-12-09T00:25:10.095Z,60.53
2018-12-09T00:29:21.858Z,60.03
2018-12-09T00:33:34.048Z,42.87
2018-12-09T00:37:45.883Z,34.93
2018-12-09T00:41:58.052Z,38.53
2018-12-09T00:46:10.116Z,40.93
2018-12-09T00:50:22.251Z,43.63
2018-12-09T00:54:34.278Z,50.27
2018-12-09T00:58:46.123Z,53.40
2018-12-09T01:02:58.274Z,47.00
2018-12-09T01:07:10.295Z,46.53
2018-12-09T01:11:22.555Z,51.43
2018-12-09T01:15:34.627Z,42.63
2018-12-09T01:19:46.647Z,49.13
2018-12-09T01:23:58.700Z,46.27
2018-12-09T01:28:11.048Z,48.37
2018-12-09T01:32:23.306Z,48.13
2018-12-09T01:36:35.206Z,48.43
2018-12-09T01:40:52.138Z,48.37
2018-12-09T01:45:04.172Z,55.13
2018-12-09T01:49:16.179Z,58.27
2018-12-09T01:54:40.603Z,54.13
2018-12-09T01:58:52.563Z,43.23
2018-12-09T02:03:05.939Z,41.27
2018-12-09T02:07:17.961Z,39.00
2018-12-09T02:11:30.488Z,44.27
2018-12-09T02:15:42.927Z,43.70
2018-12-09T02:19:55.291Z,47.60
2018-12-09T02:24:07.880Z,49.90
2018-12-09T02:28:20.812Z,48.47
2018-12-09T02:32:32.914Z,44.10
2018-12-09T02:36:45.036Z,44.70
2018-12-09T02:40:57.249Z,37.23
2018-12-09T02:45:10.272Z,46.40
2018-12-09T02:49:22.209Z,42.97
2018-12-09T02:53:34.300Z,43.13
2018-12-09T02:57:46.434Z,44.63
2018-12-09T03:01:58.508Z,40.43
2018-12-09T03:06:10.756Z,40.60
2018-12-09T03:10:22.837Z,43.87
2018-12-09T03:14:34.916Z,50.67
2018-12-09T03:18:47.373Z,42.60
2018-12-09T03:31:29.968Z,37.67
2018-12-09T03:35:41.739Z,36.03
2018-12-09T03:39:53.613Z,40.40
2018-12-09T03:44:05.649Z,30.70
2018-12-09T03:48:19.290Z,48.53
2018-12-09T03:52:31.155Z,36.67
2018-12-09T03:56:43.282Z,43.87
2018-12-09T04:00:55.273Z,34.87
2018-12-09T04:05:07.199Z,25.97
2018-12-09T04:09:19.387Z,38.23
2018-12-09T04:13:31.367Z,36.33
2018-12-09T04:17:43.368Z,35.90
2018-12-09T04:21:55.549Z,32.60
2018-12-09T04:26:07.886Z,25.63
2018-12-09T04:30:19.920Z,33.93
2018-12-09T04:34:31.954Z,33.00
2018-12-09T04:38:43.975Z,28.73
2018-12-09T04:42:56.039Z,24.37
2018-12-09T04:47:08.055Z,36.97
2018-12-09T04:51:20.183Z,30.80
2018-12-09T04:55:32.248Z,35.53
2018-12-09T04:59:49.248Z,42.90
2018-12-09T05:04:01.188Z,33.30
2018-12-09T05:08:13.338Z,34.80
2018-12-09T05:12:25.570Z,39.00
2018-12-09T05:16:37.574Z,41.33
2018-12-09T05:20:49.519Z,34.73
2018-12-09T05:25:01.523Z,41.23
2018-12-09T05:29:13.733Z,33.27
2018-12-09T05:33:25.931Z,37.10
2018-12-09T05:37:37.975Z,33.77
2018-12-09T05:41:49.984Z,44.97
2018-12-09T05:46:02.148Z,40.77
2018-12-09T05:50:14.168Z,40.37
2018-12-09T05:54:26.376Z,39.73
2018-12-09T05:58:38.539Z,30.13
2018-12-09T06:02:57.527Z,35.23
2018-12-09T06:07:09.214Z,29.03
2018-12-09T06:11:21.158Z,34.00
2018-12-09T06:15:33.256Z,31.00
2018-12-09T06:19:45.463Z,31.80
2018-12-09T06:23:57.628Z,32.27
2018-12-09T06:28:09.627Z,33.67
2018-12-09T06:32:21.700Z,32.67
2018-12-09T06:36:33.811Z,32.67
2018-12-09T06:40:46.005Z,34.37
2018-12-09T06:44:58.188Z,33.50
2018-12-09T06:49:10.222Z,38.37
2018-12-09T06:53:22.326Z,38.57
2018-12-09T06:57:33.867Z,37.83
2018-12-09T07:01:45.683Z,34.93
2018-12-09T07:05:57.388Z,29.83
2018-12-09T07:10:10.766Z,43.40
2018-12-09T07:14:22.738Z,33.80
2018-12-09T07:18:34.776Z,37.07
2018-12-09T07:22:47.013Z,37.77
2018-12-09T07:26:59.007Z,35.97
2018-12-09T07:31:11.188Z,34.97
2018-12-09T07:35:23.231Z,37.23
2018-12-09T07:39:35.336Z,36.23
2018-12-09T07:43:47.495Z,32.57
2018-12-09T07:47:59.506Z,42.80
2018-12-09T07:52:11.515Z,32.60
2018-12-09T07:56:23.579Z,38.70
2018-12-09T08:00:35.573Z,42.00
2018-12-09T08:04:47.572Z,37.30
2018-12-09T08:08:59.575Z,45.73
2018-12-09T08:13:11.671Z,40.63
2018-12-09T08:17:23.263Z,41.13
2018-12-09T08:21:35.329Z,41.83
2018-12-09T08:25:47.102Z,39.07
2018-12-09T08:29:58.952Z,38.07
2018-12-09T08:34:10.902Z,37.77
2018-12-09T08:38:23.006Z,32.87
2018-12-09T08:42:35.115Z,37.13
2018-12-09T08:46:47.276Z,32.80
2018-12-09T08:50:58.847Z,39.23
2018-12-09T08:55:10.565Z,28.90
2018-12-09T08:59:22.431Z,32.30
2018-12-09T09:03:34.244Z,39.77
2018-12-09T09:07:46.139Z,35.93
2018-12-09T09:11:58.275Z,29.07
2018-12-09T09:16:10.247Z,35.10
2018-12-09T09:20:22.254Z,33.07
2018-12-09T09:24:34.240Z,34.20
2018-12-09T09:28:45.901Z,39.90
2018-12-09T09:32:57.707Z,35.47
2018-12-09T09:37:09.458Z,35.57
2018-12-09T09:41:21.368Z,36.57
2018-12-09T09:45:33.403Z,38.10
2018-12-09T09:49:45.455Z,33.57
2018-12-09T09:53:57.491Z,38.43
2018-12-09T09:58:09.089Z,31.13
2018-12-09T10:02:20.828Z,27.73
2018-12-09T10:06:32.626Z,27.17
2018-12-09T10:10:44.598Z,28.67
2018-12-09T10:14:56.695Z,28.43
2018-12-09T10:19:08.682Z,26.90
2018-12-09T10:23:20.607Z,28.03
2018-12-09T10:27:32.620Z,25.27
2018-12-09T10:31:44.718Z,27.73
2018-12-09T10:35:56.852Z,20.30
2018-12-09T10:40:09.138Z,23.40
2018-12-09T10:44:20.948Z,26.80
2018-12-09T10:48:33.037Z,21.83
2018-12-09T10:52:45.128Z,25.00
2018-12-09T10:56:57.160Z,25.40
2018-12-09T11:01:13.497Z,24.70
2018-12-09T11:05:25.203Z,25.83
2018-12-09T11:09:37.304Z,21.00
2018-12-09T11:13:49.191Z,18.87
2018-12-09T11:18:01.314Z,24.30
2018-12-09T11:22:13.317Z,20.07
2018-12-09T11:26:25.038Z,23.10
2018-12-09T11:30:37.404Z,18.13
2018-12-09T11:34:49.159Z,21.43
2018-12-09T11:39:01.055Z,21.63
2018-12-09T11:43:13.120Z,20.23
2018-12-09T11:47:25.320Z,22.93
2018-12-09T11:51:37.335Z,21.00
2018-12-09T11:55:49.432Z,19.27
2018-12-09T12:00:01.531Z,18.47
2018-12-09T12:04:13.643Z,18.77
2018-12-09T12:08:25.743Z,22.37
2018-12-09T12:12:37.983Z,23.33
2018-12-09T12:16:50.064Z,21.23
2018-12-09T12:21:02.074Z,18.73
2018-12-09T12:25:14.298Z,23.87
2018-12-09T12:29:26.491Z,21.17
2018-12-09T12:33:38.022Z,15.83
2018-12-09T12:37:49.742Z,19.30
2018-12-09T12:42:01.727Z,24.67
2018-12-09T12:46:13.515Z,18.77
2018-12-09T12:50:26.326Z,20.53
2018-12-09T12:54:38.076Z,22.90
2018-12-09T12:58:49.995Z,22.87
2018-12-09T13:03:01.947Z,18.60
2018-12-09T13:07:15.887Z,20.07
2018-12-09T13:11:27.809Z,21.77
2018-12-09T13:15:39.698Z,19.50
2018-12-09T13:19:51.717Z,20.10
2018-12-09T13:24:03.907Z,19.60
2018-12-09T13:28:16.165Z,23.20
2018-12-09T13:32:28.182Z,18.47
2018-12-09T13:36:40.144Z,15.90
2018-12-09T13:40:52.246Z,19.57
2018-12-09T13:45:04.558Z,21.70
2018-12-09T13:49:16.719Z,19.47
2018-12-09T13:53:28.720Z,19.67
2018-12-09T13:57:40.723Z,22.27
2018-12-09T14:01:52.687Z,18.13
2018-12-09T14:06:04.895Z,18.40
2018-12-09T14:10:17.265Z,19.07
2018-12-09T14:14:29.223Z,22.17
2018-12-09T14:18:41.131Z,16.37
2018-12-09T14:22:53.265Z,17.77
2018-12-09T14:27:05.370Z,18.73
2018-12-09T14:31:17.342Z,23.73
2018-12-09T14:35:29.445Z,22.03
2018-12-09T14:39:41.614Z,16.90
2018-12-09T14:43:53.656Z,17.67
2018-12-09T14:48:06.164Z,16.90
2018-12-09T14:52:17.989Z,19.07
2018-12-09T14:56:29.999Z,22.00
2018-12-09T15:00:42.099Z,21.93
2018-12-09T15:04:54.248Z,24.97
2018-12-09T15:09:07.818Z,21.63
2018-12-09T15:13:19.895Z,26.23
2018-12-09T15:17:31.967Z,24.03
2018-12-09T15:21:43.972Z,18.13
2018-12-09T15:25:55.979Z,22.60
2018-12-09T15:30:08.423Z,22.53
2018-12-09T15:34:20.291Z,24.03
2018-12-09T15:38:32.317Z,22.73
2018-12-09T15:42:44.399Z,22.30
2018-12-09T15:46:56.568Z,21.03
2018-12-09T15:51:12.510Z,16.90
2018-12-09T15:55:24.191Z,19.63
2018-12-09T15:59:36.023Z,18.93
2018-12-09T16:03:48.051Z,25.37
2018-12-09T16:08:00.123Z,20.20
2018-12-09T16:12:14.164Z,24.80
2018-12-09T16:16:26.796Z,21.80
2018-12-09T16:20:39.494Z,20.97
2018-12-09T16:24:53.982Z,18.63
2018-12-09T16:29:06.369Z,21.30
2018-12-09T16:33:18.339Z,15.40
2018-12-09T16:37:30.067Z,19.57
2018-12-09T16:41:42.242Z,21.90
2018-12-09T16:45:54.364Z,19.87
2018-12-09T16:50:06.468Z,22.30
2018-12-09T16:54:18.485Z,22.57
2018-12-09T16:58:30.200Z,15.27
2018-12-09T17:02:43.467Z,19.80
2018-12-09T17:06:55.556Z,20.53
2018-12-09T17:11:07.638Z,61.83
2018-12-09T17:15:19.797Z,23.73
2018-12-09T17:19:31.803Z,27.63
2018-12-09T17:23:43.831Z,46.37
2018-12-09T17:27:55.827Z,21.90
2018-12-09T17:32:08.023Z,25.07
2018-12-09T17:36:20.132Z,23.00
2018-12-09T17:40:32.248Z,23.03
2018-12-09T17:44:44.414Z,21.53
2018-12-09T17:48:56.447Z,21.30
2018-12-09T17:53:08.021Z,22.00
2018-12-09T17:57:19.740Z,29.20
2018-12-09T18:01:31.695Z,26.07
2018-12-09T18:05:43.774Z,59.00
2018-12-09T18:09:55.809Z,42.30
2018-12-09T18:14:07.835Z,28.03
2018-12-09T18:18:19.891Z,27.37
2018-12-09T18:22:32.011Z,27.23
2018-12-09T18:26:44.176Z,24.00
2018-12-09T18:30:55.734Z,24.30
2018-12-09T18:35:07.900Z,20.70
2018-12-09T18:39:19.748Z,22.37
2018-12-09T18:43:31.488Z,24.53
2018-12-09T18:47:43.354Z,21.10
2018-12-09T18:51:55.783Z,47.43
2018-12-09T18:56:08.492Z,41.27
2018-12-09T19:00:20.101Z,28.03
2018-12-09T19:04:31.780Z,22.73
2018-12-09T19:08:43.719Z,23.83
2018-12-09T19:12:55.683Z,24.00
2018-12-09T19:17:07.891Z,23.97
2018-12-09T19:21:20.038Z,22.43
2018-12-09T19:25:32.127Z,24.97
2018-12-09T19:29:44.260Z,26.63
2018-12-09T19:33:56.250Z,21.97
2018-12-09T19:38:08.230Z,26.10
2018-12-09T19:42:20.458Z,21.03
2018-12-09T19:46:32.447Z,20.33
2018-12-09T19:50:44.470Z,26.13
2018-12-09T19:54:56.507Z,31.20
2018-12-09T19:59:08.503Z,26.13
2018-12-09T20:03:20.537Z,28.30
2018-12-09T20:07:32.660Z,112.43
2018-12-09T20:11:45.264Z,68.30
2018-12-09T20:15:57.226Z,49.50
2018-12-09T20:20:09.679Z,30.33
2018-12-09T20:24:21.407Z,31.17
2018-12-09T20:28:33.310Z,26.83
2018-12-09T20:32:45.467Z,25.80
2018-12-09T20:36:57.501Z,20.97
2018-12-09T20:41:09.105Z,29.07
2018-12-09T20:45:20.868Z,29.10
2018-12-09T20:49:32.852Z,22.50
2018-12-09T20:53:44.746Z,25.87
2018-12-09T20:57:56.743Z,24.17
2018-12-09T21:02:08.851Z,23.13
2018-12-09T21:06:20.925Z,24.80
2018-12-09T21:10:33.160Z,28.13
2018-12-09T21:14:45.262Z,23.13
2018-12-09T21:18:57.295Z,23.30
2018-12-09T21:23:08.990Z,25.50
2018-12-09T21:27:20.755Z,23.27
2018-12-09T21:31:32.978Z,20.60
2018-12-09T21:35:44.849Z,25.03
2018-12-09T21:39:56.928Z,20.67
2018-12-09T21:44:09.129Z,15.67
2018-12-09T21:48:21.112Z,25.67
2018-12-09T21:52:33.016Z,62.47
2018-12-09T21:56:45.042Z,31.43
2018-12-09T22:00:57.127Z,25.53
2018-12-09T22:05:09.420Z,22.20
2018-12-09T22:09:21.422Z,24.50
2018-12-09T22:13:33.442Z,21.50
2018-12-09T22:17:45.530Z,16.57
2018-12-09T22:21:57.183Z,20.77
2018-12-09T22:26:11.957Z,17.80
2018-12-09T22:30:24.102Z,23.77
2018-12-09T22:34:36.196Z,24.73
2018-12-09T22:38:48.042Z,21.37
2018-12-09T22:43:00.197Z,18.37
2018-12-09T22:47:12.058Z,16.67
2018-12-09T22:51:24.071Z,17.00
2018-12-09T22:55:36.131Z,17.77
2018-12-09T22:59:48.171Z,15.20
2018-12-09T23:04:00.256Z,22.30
2018-12-09T23:08:12.367Z,18.33
2018-12-09T23:12:24.498Z,17.37
2018-12-09T23:16:36.608Z,18.10
2018-12-09T23:20:48.822Z,16.60
2018-12-09T23:25:01.014Z,14.90
2018-12-09T23:29:13.021Z,21.07
2018-12-09T23:33:25.023Z,18.07
2018-12-09T23:37:42.536Z,17.57
2018-12-09T23:41:58.063Z,19.80
2018-12-09T23:46:13.783Z,16.43
2018-12-09T23:50:29.651Z,17.50
2018-12-09T23:54:41.818Z,15.20
2018-12-09T23:58:54.625Z,22.77
